sensor_id;sensor_type;location;lat;lon;timestamp;P1;durP1;ratioP1;P2;durP2;ratioP2
45033;SDS011;30771;47.988;-4.186;2022-08-06T06:02:40;11.43;;;2.05;;
45033;SDS011;30771;47.988;-4.186;2022-08-06T06:05:08;9.55;;;2.47;;
45033;SDS011;30771;47.988;-4.186;2022-08-06T06:07:33;9.10;;;2.10;;
45033;SDS011;30771;47.988;-4.186;2022-08-06T06:10:00;10.93;;;2.00;;
45033;SDS011;30771;47.988;-4.186;2022-08-06T06:12:27;14.63;;;3.05;;
45033;SDS011;30771;47.988;-4.186;2022-08-06T06:14:54;9.20;;;1.80;;
45033;SDS011;30771;47.988;-4.186;2022-08-06T06:22:54;12.20;;;2.08;;
45033;SDS011;30771;47.988;-4.186;2022-08-06T06:31:17;12.20;;;2.08;;
45033;SDS011;30771;47.988;-4.186;2022-08-06T06:36:20;18.75;;;2.30;;
45033;SDS011;30771;47.988;-4.186;2022-08-06T06:41:52;12.32;;;1.73;;
45033;SDS011;30771;47.988;-4.186;2022-08-06T06:49:44;8.57;;;1.70;;
45033;SDS011;30771;47.988;-4.186;2022-08-06T06:54:52;11.50;;;2.03;;
45033;SDS011;30771;47.988;-4.186;2022-08-06T06:57:23;10.02;;;2.30;;
45033;SDS011;30771;47.988;-4.186;2022-08-06T06:59:54;12.23;;;2.17;;
45033;SDS011;30771;47.988;-4.186;2022-08-06T07:02:24;13.48;;;1.83;;
45033;SDS011;30771;47.988;-4.186;2022-08-06T07:04:51;12.95;;;2.13;;
45033;SDS011;30771;47.988;-4.186;2022-08-06T07:07:18;10.52;;;2.95;;
45033;SDS011;30771;47.988;-4.186;2022-08-06T07:09:45;8.68;;;1.60;;
45033;SDS011;30771;47.988;-4.186;2022-08-06T07:12:12;12.13;;;2.25;;
45033;SDS011;30771;47.988;-4.186;2022-08-06T07:14:40;9.27;;;1.90;;
45033;SDS011;30771;47.988;-4.186;2022-08-06T07:17:07;9.23;;;1.83;;
45033;SDS011;30771;47.988;-4.186;2022-08-06T07:19:34;10.10;;;2.10;;
45033;SDS011;30771;47.988;-4.186;2022-08-06T07:22:00;11.43;;;2.08;;
45033;SDS011;30771;47.988;-4.186;2022-08-06T07:24:28;8.63;;;2.03;;
45033;SDS011;30771;47.988;-4.186;2022-08-06T07:26:57;12.15;;;1.88;;
45033;SDS011;30771;47.988;-4.186;2022-08-06T07:29:24;9.02;;;2.03;;
45033;SDS011;30771;47.988;-4.186;2022-08-06T07:31:51;13.45;;;2.10;;
45033;SDS011;30771;47.988;-4.186;2022-08-06T07:34:17;10.98;;;1.50;;
45033;SDS011;30771;47.988;-4.186;2022-08-06T07:36:47;11.70;;;1.80;;
45033;SDS011;30771;47.988;-4.186;2022-08-06T07:39:22;8.45;;;1.92;;
45033;SDS011;30771;47.988;-4.186;2022-08-06T07:41:55;7.65;;;1.42;;
45033;SDS011;30771;47.988;-4.186;2022-08-06T07:44:23;8.82;;;2.00;;
45033;SDS011;30771;47.988;-4.186;2022-08-06T07:46:52;9.32;;;1.90;;
45033;SDS011;30771;47.988;-4.186;2022-08-06T07:51:47;13.13;;;2.13;;
45033;SDS011;30771;47.988;-4.186;2022-08-06T07:54:14;10.48;;;2.25;;
45033;SDS011;30771;47.988;-4.186;2022-08-06T07:56:41;7.65;;;1.77;;
45033;SDS011;30771;47.988;-4.186;2022-08-06T07:59:08;9.73;;;1.73;;
45033;SDS011;30771;47.988;-4.186;2022-08-06T08:01:34;7.93;;;2.15;;
45033;SDS011;30771;47.988;-4.186;2022-08-06T08:04:00;9.82;;;1.65;;
45033;SDS011;30771;47.988;-4.186;2022-08-06T08:06:26;9.70;;;1.75;;
45033;SDS011;30771;47.988;-4.186;2022-08-06T08:08:55;7.78;;;1.40;;
45033;SDS011;30771;47.988;-4.186;2022-08-06T08:11:24;5.40;;;1.52;;
45033;SDS011;30771;47.988;-4.186;2022-08-06T08:13:53;5.13;;;1.40;;
45033;SDS011;30771;47.988;-4.186;2022-08-06T08:16:20;8.35;;;1.38;;
45033;SDS011;30771;47.988;-4.186;2022-08-06T08:18:46;4.85;;;1.30;;
45033;SDS011;30771;47.988;-4.186;2022-08-06T08:21:11;8.00;;;1.50;;
45033;SDS011;30771;47.988;-4.186;2022-08-06T08:23:38;6.53;;;1.45;;
45033;SDS011;30771;47.988;-4.186;2022-08-06T08:26:05;7.32;;;1.58;;
45033;SDS011;30771;47.988;-4.186;2022-08-06T08:28:30;9.18;;;1.30;;
45033;SDS011;30771;47.988;-4.186;2022-08-06T08:30:56;9.38;;;1.42;;
45033;SDS011;30771;47.988;-4.186;2022-08-06T08:33:21;7.90;;;1.50;;
45033;SDS011;30771;47.988;-4.186;2022-08-06T08:35:47;6.53;;;1.30;;
45033;SDS011;30771;47.988;-4.186;2022-08-06T08:38:12;11.88;;;1.45;;
45033;SDS011;30771;47.988;-4.186;2022-08-06T08:40:38;5.95;;;1.73;;
45033;SDS011;30771;47.988;-4.186;2022-08-06T08:43:03;8.00;;;1.48;;
45033;SDS011;30771;47.988;-4.186;2022-08-06T08:45:30;5.50;;;1.20;;
45033;SDS011;30771;47.988;-4.186;2022-08-06T08:47:56;7.43;;;1.20;;
45033;SDS011;30771;47.988;-4.186;2022-08-06T08:50:30;5.38;;;1.20;;
45033;SDS011;30771;47.988;-4.186;2022-08-06T08:53:20;6.35;;;0.90;;
45033;SDS011;30771;47.988;-4.186;2022-08-06T08:55:45;5.75;;;1.08;;
45033;SDS011;30771;47.988;-4.186;2022-08-06T08:58:11;14.07;;;1.30;;
45033;SDS011;30771;47.988;-4.186;2022-08-06T09:00:37;5.68;;;1.00;;
45033;SDS011;30771;47.988;-4.186;2022-08-06T09:03:04;7.70;;;1.02;;
45033;SDS011;30771;47.988;-4.186;2022-08-06T09:05:29;13.13;;;1.90;;
45033;SDS011;30771;47.988;-4.186;2022-08-06T09:07:55;9.40;;;1.33;;
45033;SDS011;30771;47.988;-4.186;2022-08-06T09:10:21;5.13;;;1.10;;
45033;SDS011;30771;47.988;-4.186;2022-08-06T09:12:46;9.85;;;1.05;;
45033;SDS011;30771;47.988;-4.186;2022-08-06T09:15:12;7.00;;;1.10;;
45033;SDS011;30771;47.988;-4.186;2022-08-06T09:17:40;8.65;;;0.93;;
45033;SDS011;30771;47.988;-4.186;2022-08-06T09:20:07;12.82;;;1.30;;
45033;SDS011;30771;47.988;-4.186;2022-08-06T09:22:32;5.28;;;0.90;;
45033;SDS011;30771;47.988;-4.186;2022-08-06T09:24:58;2.75;;;0.95;;
45033;SDS011;30771;47.988;-4.186;2022-08-06T09:27:23;4.50;;;1.02;;
45033;SDS011;30771;47.988;-4.186;2022-08-06T09:29:58;11.98;;;1.60;;
45033;SDS011;30771;47.988;-4.186;2022-08-06T09:33:09;5.00;;;1.10;;
45033;SDS011;30771;47.988;-4.186;2022-08-06T09:37:42;4.00;;;1.00;;
45033;SDS011;30771;47.988;-4.186;2022-08-06T09:40:11;9.48;;;1.40;;
45033;SDS011;30771;47.988;-4.186;2022-08-06T09:42:42;7.95;;;1.30;;
45033;SDS011;30771;47.988;-4.186;2022-08-06T09:45:10;6.80;;;1.30;;
45033;SDS011;30771;47.988;-4.186;2022-08-06T09:47:36;4.40;;;1.10;;
45033;SDS011;30771;47.988;-4.186;2022-08-06T09:50:03;7.15;;;1.02;;
45033;SDS011;30771;47.988;-4.186;2022-08-06T09:52:32;7.47;;;0.95;;
45033;SDS011;30771;47.988;-4.186;2022-08-06T09:54:57;11.93;;;1.48;;
45033;SDS011;30771;47.988;-4.186;2022-08-06T09:57:23;3.65;;;0.98;;
45033;SDS011;30771;47.988;-4.186;2022-08-06T09:59:50;23.35;;;2.20;;
45033;SDS011;30771;47.988;-4.186;2022-08-06T10:02:16;9.70;;;1.85;;
45033;SDS011;30771;47.988;-4.186;2022-08-06T10:04:43;7.87;;;1.17;;
45033;SDS011;30771;47.988;-4.186;2022-08-06T10:07:09;4.35;;;1.30;;
45033;SDS011;30771;47.988;-4.186;2022-08-06T10:09:34;7.28;;;1.10;;
45033;SDS011;30771;47.988;-4.186;2022-08-06T10:12:00;8.23;;;1.45;;
45033;SDS011;30771;47.988;-4.186;2022-08-06T10:14:26;6.60;;;1.30;;
45033;SDS011;30771;47.988;-4.186;2022-08-06T10:19:34;7.63;;;0.90;;
45033;SDS011;30771;47.988;-4.186;2022-08-06T10:22:08;4.70;;;0.90;;
45033;SDS011;30771;47.988;-4.186;2022-08-06T10:24:44;6.55;;;0.82;;
45033;SDS011;30771;47.988;-4.186;2022-08-06T10:27:13;4.90;;;0.80;;
45033;SDS011;30771;47.988;-4.186;2022-08-06T10:29:42;8.80;;;0.70;;
45033;SDS011;30771;47.988;-4.186;2022-08-06T10:32:22;2.38;;;0.60;;
45033;SDS011;30771;47.988;-4.186;2022-08-06T10:34:54;4.82;;;0.95;;
45033;SDS011;30771;47.988;-4.186;2022-08-06T10:37:22;3.55;;;0.90;;
45033;SDS011;30771;47.988;-4.186;2022-08-06T10:39:49;2.15;;;0.52;;
45033;SDS011;30771;47.988;-4.186;2022-08-06T10:42:19;4.82;;;0.70;;
45033;SDS011;30771;47.988;-4.186;2022-08-06T10:44:46;4.75;;;0.90;;
45033;SDS011;30771;47.988;-4.186;2022-08-06T10:47:13;7.10;;;1.17;;
45033;SDS011;30771;47.988;-4.186;2022-08-06T10:49:38;4.45;;;1.05;;
45033;SDS011;30771;47.988;-4.186;2022-08-06T10:52:04;2.42;;;0.70;;
45033;SDS011;30771;47.988;-4.186;2022-08-06T10:54:30;4.03;;;0.93;;
45033;SDS011;30771;47.988;-4.186;2022-08-06T10:56:56;4.07;;;0.80;;
45033;SDS011;30771;47.988;-4.186;2022-08-06T10:59:21;5.15;;;0.80;;
45033;SDS011;30771;47.988;-4.186;2022-08-06T11:13:08;2.58;;;0.60;;
45033;SDS011;30771;47.988;-4.186;2022-08-06T11:15:48;3.00;;;0.77;;
45033;SDS011;30771;47.988;-4.186;2022-08-06T11:18:13;3.35;;;0.65;;
45033;SDS011;30771;47.988;-4.186;2022-08-06T11:20:43;3.33;;;0.75;;
45033;SDS011;30771;47.988;-4.186;2022-08-06T11:25:47;4.10;;;0.90;;
45033;SDS011;30771;47.988;-4.186;2022-08-06T11:28:16;2.15;;;0.60;;
45033;SDS011;30771;47.988;-4.186;2022-08-06T11:30:54;2.55;;;0.55;;
45033;SDS011;30771;47.988;-4.186;2022-08-06T11:36:07;5.20;;;0.70;;
45033;SDS011;30771;47.988;-4.186;2022-08-06T11:41:10;5.93;;;1.13;;
45033;SDS011;30771;47.988;-4.186;2022-08-06T11:46:25;5.78;;;0.80;;
45033;SDS011;30771;47.988;-4.186;2022-08-06T11:51:39;1.55;;;0.40;;
45033;SDS011;30771;47.988;-4.186;2022-08-06T11:59:25;3.33;;;0.43;;
45033;SDS011;30771;47.988;-4.186;2022-08-06T12:01:52;4.75;;;0.60;;
45033;SDS011;30771;47.988;-4.186;2022-08-06T12:07:25;3.47;;;0.75;;
45033;SDS011;30771;47.988;-4.186;2022-08-06T12:14:51;2.20;;;0.65;;
45033;SDS011;30771;47.988;-4.186;2022-08-06T12:17:17;1.85;;;0.60;;
45033;SDS011;30771;47.988;-4.186;2022-08-06T12:19:51;2.65;;;0.50;;
45033;SDS011;30771;47.988;-4.186;2022-08-06T12:22:18;3.58;;;0.82;;
45033;SDS011;30771;47.988;-4.186;2022-08-06T12:24:47;5.53;;;0.88;;
